Погода Золотые Пескина 2 недели

Варна, Болгария

13 - 26 июля
  • 13июля
    Сегодня
    +21°
    +34°
    Ясно и безоблачно
    ВремяПогодаТемператураВлажностьДавлениеВетер, м/сВероятность осадков
    00:00Ясно и безоблачно+24°C53 %747 мм2.3 м/с2 %
    03:00Ясно и безоблачно+23°C61 %746 мм3.7 м/с2 %
    06:00Ясно и безоблачно+22°C72 %746 мм4.0 м/с2 %
    09:00Ясно и безоблачно+30°C54 %747 мм5.7 м/с2 %
    12:00Ясно и безоблачно+34°C40 %747 мм6.1 м/с2 %
    15:00Ясно и безоблачно+34°C41 %747 мм5.9 м/с2 %
    18:00Ясно и безоблачно+32°C42 %746 мм4.8 м/с2 %
    21:00Ясно и безоблачно+28°C53 %747 мм2.5 м/с2 %
  • 14июля
    Воскресенье
    +19°
    +36°
    Ясно и безоблачно
    ВремяПогодаТемператураВлажностьДавлениеВетер, м/сВероятность осадков
    00:00Ясно и безоблачно+24°C66 %747 мм1.7 м/с2 %
    03:00Ясно и безоблачно+23°C66 %746 мм1.8 м/с2 %
    06:00Небольшая облачность+21°C59 %747 мм2.5 м/с2 %
    09:00Ясно и безоблачно+30°C36 %747 мм3.5 м/с2 %
    12:00Ясно и безоблачно+35°C30 %747 мм4.2 м/с2 %
    15:00Ясно и безоблачно+35°C31 %747 мм4.8 м/с2 %
    18:00Ясно и безоблачно+33°C35 %746 мм3.8 м/с2 %
    21:00Ясно и безоблачно+28°C55 %747 мм1.0 м/с2 %
  • 15июля
    Понедельник
    +22°
    +37°
    Облачно с прояснениями
    ВремяПогодаТемператураВлажностьДавлениеВетер, м/сВероятность осадков
    00:00Ясно и безоблачно+22°C61 %747 мм1.3 м/с2 %
    03:00Ясно и безоблачно+21°C57 %746 мм1.8 м/с2 %
    06:00Практически безоблачно+19°C65 %746 мм2.9 м/с2 %
    09:00Небольшая облачность+30°C30 %747 мм3.6 м/с2 %
    12:00Небольшая облачность+36°C25 %748 мм5.6 м/с2 %
    15:00Облачно с прояснениями+36°C24 %747 мм6.4 м/с2 %
    18:00Практически безоблачно+33°C36 %747 мм5.6 м/с2 %
    21:00Ясно и безоблачно+28°C58 %747 мм2.6 м/с2 %
  • 16июля
    Вторник
    +23°
    +38°
    Ясно и безоблачно
    ВремяПогодаТемператураВлажностьДавлениеВетер, м/сВероятность осадков
    00:00Ясно и безоблачно+24°C72 %747 мм2.1 м/с2 %
    03:00Ясно и безоблачно+23°C66 %747 мм2.3 м/с2 %
    06:00Ясно и безоблачно+23°C44 %746 мм2.9 м/с2 %
    09:00Ясно и безоблачно+32°C31 %748 мм4.5 м/с2 %
    12:00Ясно и безоблачно+37°C31 %748 мм5.3 м/с2 %
    15:00Ясно и безоблачно+37°C37 %748 мм5.4 м/с2 %
    18:00Ясно и безоблачно+35°C40 %747 мм4.9 м/с2 %
    21:00Ясно и безоблачно+30°C56 %748 мм2.7 м/с2 %
Мы используем cookies
Соглашаюсь